^^
Saratoga-Weather Station Historical Data
Daily Summary for February 7, 2020 Units:  Both    English   Metric
Daily Weekly Monthly Yearly Custom
  High: Low: Average:
Temperature: 43.9 °F /  6.6 °C 29.7 °F /  -1.3 °C 34.9 °F /  1.6 °C
Dew Point: 35.2 °F /  1.8 °C 28.6 °F /  -1.9 °C 31.5 °F /  -0.3 °C
Humidity: 96% 69% 88%
Wind Speed: 4.9mph /  7.9km/h - 0.6mph /  0.9km/h
Wind Gust: 7mph /  11.3km/h - -
Wind- - ESE
Pressure: 30.4 in /  1029.1 hPa 30.2 in /  1023.0 hPa -
Precipitation: 0.01 in /  0.2 mm    
Historical Graphs
 
 
Tabular Data for February 7, 2020
Time Temperature Dew Point Pressure Wind Wind Speed Wind Gust Humidity Rainfall Rate (Hourly) solar
00:03 31.6 °F /  -0.2 °C 30.2 °F /  -1 °C 30.4in /  1029.1hPa Calm     94% 0in /  0.0mm 0 W/m2
00:08 31.6 °F /  -0.2 °C 30.2 °F /  -1 °C 30.4in /  1029.1hPa Calm     94% 0in /  0.0mm 0 W/m2
00:13 31.6 °F /  -0.2 °C 30.2 °F /  -1 °C 30.4in /  1029.1hPa Calm     94% 0in /  0.0mm 0 W/m2
00:18 31.6 °F /  -0.2 °C 30.2 °F /  -1 °C 30.4in /  1029.1hPa Calm   1mph /  1.6km/h 94% 0in /  0.0mm 0 W/m2
00:23 31.6 °F /  -0.2 °C 30.2 °F /  -1 °C 30.4in /  1029.1hPa Calm   1mph /  1.6km/h 94% 0in /  0.0mm 0 W/m2
00:28 31.6 °F /  -0.2 °C 30.2 °F /  -1 °C 30.4in /  1029.1hPa Calm     94% 0in /  0.0mm 0 W/m2
00:33 31.6 °F /  -0.2 °C 30.4 °F /  -0.9 °C 30.4in /  1029.1hPa Calm   2mph /  3.2km/h 95% 0in /  0.0mm 0 W/m2
00:38 31.8 °F /  -0.1 °C 30.6 °F /  -0.8 °C 30.4in /  1029.1hPa Calm   1mph /  1.6km/h 95% 0in /  0.0mm 0 W/m2
00:43 32.2 °F /  0.1 °C 30.9 °F /  -0.6 °C 30.4in /  1029.1hPa Calm   2mph /  3.2km/h 95% 0in /  0.0mm 0 W/m2
00:48 32.2 °F /  0.1 °C 30.9 °F /  -0.6 °C 30.4in /  1029.1hPa Calm     95% 0in /  0.0mm 0 W/m2
00:53 32.2 °F /  0.1 °C 30.9 °F /  -0.6 °C 30.4in /  1029.1hPa Calm     95% 0in /  0.0mm 0 W/m2
00:58 32 °F /  0 °C 30.7 °F /  -0.7 °C 30.4in /  1029.1hPa Calm     95% 0in /  0.0mm 0 W/m2
01:03 31.8 °F /  -0.1 °C 30.6 °F /  -0.8 °C 30.4in /  1029.1hPa Calm     95% 0in /  0.0mm 0 W/m2
01:08 31.8 °F /  -0.1 °C 30.6 °F /  -0.8 °C 30.4in /  1028.8hPa Calm     95% 0in /  0.0mm 0 W/m2
01:13 31.8 °F /  -0.1 °C 30.6 °F /  -0.8 °C 30.4in /  1028.8hPa SE 0.9mph /  1.4km/h 1mph /  1.6km/h 95% 0in /  0.0mm 0 W/m2
01:18 31.6 °F /  -0.2 °C 30.4 °F /  -0.9 °C 30.4in /  1028.8hPa Calm   1mph /  1.6km/h 95% 0in /  0.0mm 0 W/m2
01:23 31.6 °F /  -0.2 °C 30.4 °F /  -0.9 °C 30.4in /  1028.8hPa Calm     95% 0in /  0.0mm 0 W/m2
01:28 31.6 °F /  -0.2 °C 30.4 °F /  -0.9 °C 30.4in /  1028.8hPa Calm     95% 0in /  0.0mm 0 W/m2
01:33 31.6 °F /  -0.2 °C 30.4 °F /  -0.9 °C 30.4in /  1028.8hPa Calm   1mph /  1.6km/h 95% 0in /  0.0mm 0 W/m2
01:38 31.8 °F /  -0.1 °C 30.6 °F /  -0.8 °C 30.4in /  1028.8hPa SE 2mph /  3.2km/h 2mph /  3.2km/h 95% 0in /  0.0mm 0 W/m2
01:43 32 °F /  0 °C 30.7 °F /  -0.7 °C 30.4in /  1028.8hPa SE 0.9mph /  1.4km/h 1mph /  1.6km/h 95% 0in /  0.0mm 0 W/m2
01:48 32.2 °F /  0.1 °C 30.9 °F /  -0.6 °C 30.4in /  1028.8hPa Calm   1mph /  1.6km/h 95% 0in /  0.0mm 0 W/m2
01:53 32.2 °F /  0.1 °C 30.9 °F /  -0.6 °C 30.4in /  1028.8hPa SE 0.9mph /  1.4km/h 1mph /  1.6km/h 95% 0in /  0.0mm 0 W/m2
01:58 32.2 °F /  0.1 °C 30.9 °F /  -0.6 °C 30.4in /  1028.8hPa Calm     95% 0in /  0.0mm 0 W/m2
02:03 32.2 °F /  0.1 °C 30.9 °F /  -0.6 °C 30.4in /  1028.8hPa SE 0.9mph /  1.4km/h 2mph /  3.2km/h 95% 0in /  0.0mm 0 W/m2
02:08 32.2 °F /  0.1 °C 30.9 °F /  -0.6 °C 30.4in /  1028.8hPa Calm   1mph /  1.6km/h 95% 0in /  0.0mm 0 W/m2
02:14 32 °F /  0 °C 30.7 °F /  -0.7 °C 30.4in /  1028.8hPa Calm   2mph /  3.2km/h 95% 0in /  0.0mm 0 W/m2
02:19 31.8 °F /  -0.1 °C 30.6 °F /  -0.8 °C 30.4in /  1028.8hPa Calm   1mph /  1.6km/h 95% 0in /  0.0mm 0 W/m2
02:24 31.6 °F /  -0.2 °C 30.4 °F /  -0.9 °C 30.4in /  1028.8hPa Calm     95% 0in /  0.0mm 0 W/m2
02:29 31.6 °F /  -0.2 °C 30.4 °F /  -0.9 °C 30.4in /  1028.8hPa Calm     95% 0in /  0.0mm 0 W/m2
02:34 31.6 °F /  -0.2 °C 30.4 °F /  -0.9 °C 30.4in /  1028.8hPa Calm     95% 0in /  0.0mm 0 W/m2
02:39 31.6 °F /  -0.2 °C 30.4 °F /  -0.9 °C 30.4in /  1028.8hPa Calm     95% 0in /  0.0mm 0 W/m2
02:44 31.6 °F /  -0.2 °C 30.4 °F /  -0.9 °C 30.4in /  1028.8hPa Calm     95% 0in /  0.0mm 0 W/m2
02:49 31.6 °F /  -0.2 °C 30.4 °F /  -0.9 °C 30.4in /  1028.8hPa SE 0.9mph /  1.4km/h 1mph /  1.6km/h 95% 0in /  0.0mm 0 W/m2
02:54 31.5 °F /  -0.3 °C 30.2 °F /  -1 °C 30.4in /  1028.8hPa Calm   1mph /  1.6km/h 95% 0in /  0.0mm 0 W/m2
02:59 31.5 °F /  -0.3 °C 30.2 °F /  -1 °C 30.4in /  1028.8hPa Calm     95% 0in /  0.0mm 0 W/m2
03:04 31.5 °F /  -0.3 °C 30.2 °F /  -1 °C 30.4in /  1028.8hPa Calm   1mph /  1.6km/h 95% 0in /  0.0mm 0 W/m2
03:09 31.3 °F /  -0.4 °C 30 °F /  -1.1 °C 30.4in /  1028.8hPa Calm   1mph /  1.6km/h 95% 0in /  0.0mm 0 W/m2
03:14 31.3 °F /  -0.4 °C 30 °F /  -1.1 °C 30.4in /  1028.8hPa Calm   1mph /  1.6km/h 95% 0in /  0.0mm 0 W/m2
03:19 31.5 °F /  -0.3 °C 30.2 °F /  -1 °C 30.4in /  1028.8hPa SE 0.9mph /  1.4km/h 2mph /  3.2km/h 95% 0in /  0.0mm 0 W/m2
03:24 31.3 °F /  -0.4 °C 30 °F /  -1.1 °C 30.4in /  1028.5hPa Calm   1mph /  1.6km/h 95% 0in /  0.0mm 0 W/m2
03:29 31.3 °F /  -0.4 °C 30 °F /  -1.1 °C 30.4in /  1028.5hPa Calm   2mph /  3.2km/h 95% 0in /  0.0mm 0 W/m2
03:34 31.3 °F /  -0.4 °C 30 °F /  -1.1 °C 30.4in /  1028.5hPa SE 0.9mph /  1.4km/h 1mph /  1.6km/h 95% 0in /  0.0mm 0 W/m2
03:39 31.3 °F /  -0.4 °C 30 °F /  -1.1 °C 30.4in /  1028.8hPa Calm   2mph /  3.2km/h 95% 0in /  0.0mm 0 W/m2
03:44 30.9 °F /  -0.6 °C 29.7 °F /  -1.3 °C 30.4in /  1028.5hPa Calm   1mph /  1.6km/h 95% 0in /  0.0mm 0 W/m2
03:49 30.9 °F /  -0.6 °C 29.7 °F /  -1.3 °C 30.4in /  1028.8hPa Calm   2mph /  3.2km/h 95% 0in /  0.0mm 0 W/m2
03:54 30.7 °F /  -0.7 °C 29.5 °F /  -1.4 °C 30.4in /  1028.8hPa Calm   1mph /  1.6km/h 95% 0in /  0.0mm 0 W/m2
03:59 30.7 °F /  -0.7 °C 29.5 °F /  -1.4 °C 30.4in /  1028.5hPa Calm     95% 0in /  0.0mm 0 W/m2
04:04 30.7 °F /  -0.7 °C 29.5 °F /  -1.4 °C 30.4in /  1028.5hPa Calm   1mph /  1.6km/h 95% 0in /  0.0mm 0 W/m2
04:09 30.7 °F /  -0.7 °C 29.5 °F /  -1.4 °C 30.4in /  1028.5hPa Calm     95% 0in /  0.0mm 0 W/m2
04:14 30.7 °F /  -0.7 °C 29.5 °F /  -1.4 °C 30.4in /  1028.5hPa Calm   1mph /  1.6km/h 95% 0in /  0.0mm 0 W/m2
04:19 30.7 °F /  -0.7 °C 29.5 °F /  -1.4 °C 30.4in /  1028.5hPa SE 0.9mph /  1.4km/h 1mph /  1.6km/h 95% 0in /  0.0mm 0 W/m2
04:24 30.7 °F /  -0.7 °C 29.5 °F /  -1.4 °C 30.4in /  1028.5hPa Calm   1mph /  1.6km/h 95% 0in /  0.0mm 0 W/m2
04:29 30.7 °F /  -0.7 °C 29.7 °F /  -1.3 °C 30.4in /  1028.5hPa SE 0.9mph /  1.4km/h 2mph /  3.2km/h 96% 0in /  0.0mm 0 W/m2
04:34 30.9 °F /  -0.6 °C 29.8 °F /  -1.2 °C 30.4in /  1028.5hPa SE 0.9mph /  1.4km/h 1mph /  1.6km/h 96% 0in /  0.0mm 0 W/m2
04:39 30.9 °F /  -0.6 °C 29.8 °F /  -1.2 °C 30.4in /  1028.5hPa SE 0.9mph /  1.4km/h 1mph /  1.6km/h 96% 0in /  0.0mm 0 W/m2
04:44 30.7 °F /  -0.7 °C 29.7 °F /  -1.3 °C 30.4in /  1028.5hPa Calm   1mph /  1.6km/h 96% 0in /  0.0mm 0 W/m2
04:49 30.7 °F /  -0.7 °C 29.5 °F /  -1.4 °C 30.4in /  1028.5hPa Calm     95% 0in /  0.0mm 0 W/m2
04:55 30.7 °F /  -0.7 °C 29.7 °F /  -1.3 °C 30.4in /  1028.5hPa Calm   2mph /  3.2km/h 96% 0in /  0.0mm 0 W/m2
05:00 30.7 °F /  -0.7 °C 29.7 °F /  -1.3 °C 30.4in /  1028.5hPa Calm     96% 0in /  0.0mm 0 W/m2
05:05 30.7 °F /  -0.7 °C 29.7 °F /  -1.3 °C 30.4in /  1028.5hPa Calm   2mph /  3.2km/h 96% 0in /  0.0mm 0 W/m2
05:10 30.6 °F /  -0.8 °C 29.3 °F /  -1.5 °C 30.4in /  1028.5hPa Calm     95% 0in /  0.0mm 0 W/m2
05:15 30.6 °F /  -0.8 °C 29.3 °F /  -1.5 °C 30.4in /  1028.5hPa Calm   2mph /  3.2km/h 95% 0in /  0.0mm 0 W/m2
05:20 30.6 °F /  -0.8 °C 29.3 °F /  -1.5 °C 30.4in /  1028.5hPa Calm     95% 0in /  0.0mm 0 W/m2
05:25 30.6 °F /  -0.8 °C 29.5 °F /  -1.4 °C 30.4in /  1028.5hPa Calm     96% 0in /  0.0mm 0 W/m2
05:30 30.6 °F /  -0.8 °C 29.5 °F /  -1.4 °C 30.4in /  1028.5hPa Calm   1mph /  1.6km/h 96% 0in /  0.0mm 0 W/m2
05:35 30.6 °F /  -0.8 °C 29.5 °F /  -1.4 °C 30.4in /  1028.5hPa SE 0.9mph /  1.4km/h 1mph /  1.6km/h 96% 0in /  0.0mm 0 W/m2
05:40 30.6 °F /  -0.8 °C 29.5 °F /  -1.4 °C 30.4in /  1028.1hPa Calm   1mph /  1.6km/h 96% 0in /  0.0mm 0 W/m2
05:45 30.6 °F /  -0.8 °C 29.5 °F /  -1.4 °C 30.4in /  1028.1hPa Calm     96% 0in /  0.0mm 0 W/m2
05:50 30.6 °F /  -0.8 °C 29.5 °F /  -1.4 °C 30.4in /  1028.1hPa Calm     96% 0in /  0.0mm 0 W/m2
05:55 30.4 °F /  -0.9 °C 29.1 °F /  -1.6 °C 30.4in /  1028.1hPa Calm     95% 0in /  0.0mm 0 W/m2
06:00 30.4 °F /  -0.9 °C 29.3 °F /  -1.5 °C 30.4in /  1028.1hPa Calm     96% 0in /  0.0mm 0 W/m2
06:06 30.2 °F /  -1 °C 28.9 °F /  -1.7 °C 30.4in /  1028.1hPa Calm     95% 0in /  0.0mm 0 W/m2
06:11 30.2 °F /  -1 °C 29.1 °F /  -1.6 °C 30.4in /  1028.1hPa Calm     96% 0in /  0.0mm 0 W/m2
06:16 30.2 °F /  -1 °C 29.1 °F /  -1.6 °C 30.4in /  1028.1hPa Calm     96% 0in /  0.0mm 0 W/m2
06:21 30 °F /  -1.1 °C 28.9 °F /  -1.7 °C 30.4in /  1028.1hPa Calm     96% 0in /  0.0mm 0 W/m2
06:26 30 °F /  -1.1 °C 28.9 °F /  -1.7 °C 30.4in /  1028.1hPa Calm     96% 0in /  0.0mm 0 W/m2
06:31 30 °F /  -1.1 °C 28.9 °F /  -1.7 °C 30.4in /  1028.1hPa Calm     96% 0in /  0.0mm 0 W/m2
06:36 30 °F /  -1.1 °C 28.9 °F /  -1.7 °C 30.4in /  1028.1hPa Calm     96% 0in /  0.0mm 0 W/m2
06:41 30 °F /  -1.1 °C 28.9 °F /  -1.7 °C 30.4in /  1028.1hPa Calm     96% 0in /  0.0mm 0 W/m2
06:46 30 °F /  -1.1 °C 28.9 °F /  -1.7 °C 30.4in /  1028.1hPa Calm     96% 0in /  0.0mm 0 W/m2
06:51 29.8 °F /  -1.2 °C 28.8 °F /  -1.8 °C 30.4in /  1028.1hPa Calm     96% 0in /  0.0mm 0 W/m2
06:56 29.8 °F /  -1.2 °C 28.8 °F /  -1.8 °C 30.4in /  1028.1hPa Calm     96% 0in /  0.0mm 0 W/m2
07:01 29.8 °F /  -1.2 °C 28.8 °F /  -1.8 °C 30.4in /  1028.1hPa Calm     96% 0in /  0.0mm 0 W/m2
07:06 29.8 °F /  -1.2 °C 28.8 °F /  -1.8 °C 30.4in /  1028.1hPa Calm     96% 0in /  0.0mm 0 W/m2
07:11 29.8 °F /  -1.2 °C 28.8 °F /  -1.8 °C 30.4in /  1028.1hPa SE 0.9mph /  1.4km/h 1mph /  1.6km/h 96% 0in /  0.0mm 0 W/m2
07:16 29.8 °F /  -1.2 °C 28.8 °F /  -1.8 °C 30.4in /  1028.1hPa Calm     96% 0in /  0.0mm 0 W/m2
07:21 29.8 °F /  -1.2 °C 28.8 °F /  -1.8 °C 30.4in /  1028.1hPa Calm   1mph /  1.6km/h 96% 0in /  0.0mm 0 W/m2
07:26 29.8 °F /  -1.2 °C 28.8 °F /  -1.8 °C 30.4in /  1028.1hPa Calm     96% 0in /  0.0mm 0 W/m2
07:32 29.8 °F /  -1.2 °C 28.8 °F /  -1.8 °C 30.4in /  1027.8hPa Calm     96% 0in /  0.0mm 0 W/m2
07:37 29.8 °F /  -1.2 °C 28.8 °F /  -1.8 °C 30.4in /  1027.8hPa Calm   1mph /  1.6km/h 96% 0in /  0.0mm 0 W/m2
07:42 29.7 °F /  -1.3 °C 28.6 °F /  -1.9 °C 30.4in /  1027.8hPa Calm   1mph /  1.6km/h 96% 0in /  0.0mm 0 W/m2
07:47 29.7 °F /  -1.3 °C 28.6 °F /  -1.9 °C 30.4in /  1028.1hPa Calm     96% 0in /  0.0mm 0 W/m2
07:52 29.7 °F /  -1.3 °C 28.6 °F /  -1.9 °C 30.4in /  1027.8hPa Calm   1mph /  1.6km/h 96% 0in /  0.0mm 0 W/m2
07:57 29.7 °F /  -1.3 °C 28.6 °F /  -1.9 °C 30.4in /  1027.8hPa Calm   1mph /  1.6km/h 96% 0in /  0.0mm 0 W/m2
08:02 29.7 °F /  -1.3 °C 28.6 °F /  -1.9 °C 30.4in /  1027.8hPa Calm     96% 0in /  0.0mm 5 W/m2
08:07 29.7 °F /  -1.3 °C 28.6 °F /  -1.9 °C 30.4in /  1027.8hPa SE 0.9mph /  1.4km/h 1mph /  1.6km/h 96% 0in /  0.0mm 5 W/m2
08:12 29.7 °F /  -1.3 °C 28.6 °F /  -1.9 °C 30.4in /  1027.8hPa SE 2mph /  3.2km/h 2mph /  3.2km/h 96% 0in /  0.0mm 7 W/m2
08:17 29.7 °F /  -1.3 °C 28.6 °F /  -1.9 °C 30.4in /  1027.8hPa Calm     96% 0in /  0.0mm 11 W/m2
08:28 29.7 °F /  -1.3 °C 28.6 °F /  -1.9 °C 30.4in /  1027.8hPa East 0.9mph /  1.4km/h 1mph /  1.6km/h 96% 0in /  0.0mm 14 W/m2
08:33 29.8 °F /  -1.2 °C 28.8 °F /  -1.8 °C 30.4in /  1027.8hPa ESE 0.9mph /  1.4km/h 2mph /  3.2km/h 96% 0in /  0.0mm 16 W/m2
08:38 30 °F /  -1.1 °C 28.9 °F /  -1.7 °C 30.3in /  1027.4hPa East 2.9mph /  4.7km/h 3mph /  4.8km/h 96% 0in /  0.0mm 16 W/m2
08:43 30.4 °F /  -0.9 °C 29.3 °F /  -1.5 °C 30.3in /  1027.4hPa ESE 2mph /  3.2km/h 2mph /  3.2km/h 96% 0in /  0.0mm 18 W/m2
08:49 30.4 °F /  -0.9 °C 29.3 °F /  -1.5 °C 30.3in /  1027.4hPa East 2.9mph /  4.7km/h 3mph /  4.8km/h 96% 0in /  0.0mm 19 W/m2
08:54 30.6 °F /  -0.8 °C 29.5 °F /  -1.4 °C 30.4in /  1027.8hPa ESE 0.9mph /  1.4km/h 2mph /  3.2km/h 96% 0in /  0.0mm 21 W/m2
08:59 30.7 °F /  -0.7 °C 29.7 °F /  -1.3 °C 30.4in /  1027.8hPa Calm   1mph /  1.6km/h 96% 0in /  0.0mm 23 W/m2
09:04 30.7 °F /  -0.7 °C 29.7 °F /  -1.3 °C 30.3in /  1027.4hPa Calm   1mph /  1.6km/h 96% 0in /  0.0mm 25 W/m2
09:09 30.9 °F /  -0.6 °C 29.8 °F /  -1.2 °C 30.3in /  1027.4hPa Calm   2mph /  3.2km/h 96% 0in /  0.0mm 25 W/m2
09:14 30.9 °F /  -0.6 °C 29.8 °F /  -1.2 °C 30.3in /  1027.4hPa Calm   1mph /  1.6km/h 96% 0in /  0.0mm 30 W/m2
09:19 31.1 °F /  -0.5 °C 30 °F /  -1.1 °C 30.4in /  1027.8hPa Calm   2mph /  3.2km/h 96% 0in /  0.0mm 30 W/m2
09:24 31.3 °F /  -0.4 °C 30.2 °F /  -1 °C 30.4in /  1027.8hPa Calm   1mph /  1.6km/h 96% 0in /  0.0mm 46 W/m2
09:29 31.5 °F /  -0.3 °C 30.4 °F /  -0.9 °C 30.4in /  1027.8hPa ESE 0.9mph /  1.4km/h 1mph /  1.6km/h 96% 0in /  0.0mm 42 W/m2
09:34 31.6 °F /  -0.2 °C 30.6 °F /  -0.8 °C 30.4in /  1027.8hPa ESE 0.9mph /  1.4km/h 2mph /  3.2km/h 96% 0in /  0.0mm 49 W/m2
09:39 31.8 °F /  -0.1 °C 30.7 °F /  -0.7 °C 30.3in /  1027.4hPa East 2mph /  3.2km/h 3mph /  4.8km/h 96% 0in /  0.0mm 46 W/m2
09:44 32.2 °F /  0.1 °C 31.1 °F /  -0.5 °C 30.3in /  1027.4hPa Calm   1mph /  1.6km/h 96% 0in /  0.0mm 76 W/m2
09:49 32.4 °F /  0.2 °C 31.1 °F /  -0.5 °C 30.3in /  1027.4hPa Calm   4mph /  6.4km/h 95% 0in /  0.0mm 105 W/m2
09:54 32.7 °F /  0.4 °C 31.6 °F /  -0.2 °C 30.3in /  1027.4hPa ENE 0.9mph /  1.4km/h 2mph /  3.2km/h 96% 0in /  0.0mm 116 W/m2
09:59 33.1 °F /  0.6 °C 31.8 °F /  -0.1 °C 30.3in /  1027.4hPa ENE 2mph /  3.2km/h 4mph /  6.4km/h 95% 0in /  0.0mm 107 W/m2
10:04 33.6 °F /  0.9 °C 32.4 °F /  0.2 °C 30.3in /  1027.4hPa ENE 0.9mph /  1.4km/h 2mph /  3.2km/h 95% 0in /  0.0mm 156 W/m2
10:09 34.2 °F /  1.2 °C 32.9 °F /  0.5 °C 30.3in /  1027.4hPa Calm     95% 0.01in /  0.2mm 70 W/m2
10:14 34.3 °F /  1.3 °C 32.7 °F /  0.4 °C 30.3in /  1027.4hPa NE 2mph /  3.2km/h 3mph /  4.8km/h 94% 0.01in /  0.2mm 67 W/m2
10:19 34.5 °F /  1.4 °C 32.7 °F /  0.4 °C 30.3in /  1027.4hPa Calm   2mph /  3.2km/h 93% 0.01in /  0.2mm 62 W/m2
10:24 34.5 °F /  1.4 °C 32.4 °F /  0.2 °C 30.3in /  1027.4hPa East 2.9mph /  4.7km/h 3mph /  4.8km/h 92% 0.01in /  0.2mm 56 W/m2
10:29 34.5 °F /  1.4 °C 32.4 °F /  0.2 °C 30.3in /  1027.4hPa Calm   3mph /  4.8km/h 92% 0.01in /  0.2mm 74 W/m2
10:34 34.5 °F /  1.4 °C 32.4 °F /  0.2 °C 30.3in /  1027.4hPa ESE 2.9mph /  4.7km/h 3mph /  4.8km/h 92% 0.01in /  0.2mm 79 W/m2
10:39 34.9 °F /  1.6 °C 32.5 °F /  0.3 °C 30.3in /  1027.4hPa ESE 2.9mph /  4.7km/h 4mph /  6.4km/h 91% 0.01in /  0.2mm 60 W/m2
10:44 35.1 °F /  1.7 °C 32.7 °F /  0.4 °C 30.3in /  1027.4hPa ESE 2mph /  3.2km/h 2mph /  3.2km/h 91% 0.01in /  0.2mm 39 W/m2
10:49 35.2 °F /  1.8 °C 32.5 °F /  0.3 °C 30.3in /  1027.4hPa East 4mph /  6.4km/h 4mph /  6.4km/h 90% 0.01in /  0.2mm 56 W/m2
10:54 35.4 °F /  1.9 °C 32.7 °F /  0.4 °C 30.3in /  1027.4hPa ENE 0.9mph /  1.4km/h 2mph /  3.2km/h 90% 0.01in /  0.2mm 134 W/m2
10:59 35.8 °F /  2.1 °C 32.9 °F /  0.5 °C 30.3in /  1027.1hPa ENE 2.9mph /  4.7km/h 3mph /  4.8km/h 89% 0.01in /  0.2mm 105 W/m2
11:04 36 °F /  2.2 °C 33.1 °F /  0.6 °C 30.3in /  1027.1hPa ENE 4mph /  6.4km/h 4mph /  6.4km/h 89% 0.01in /  0.2mm 121 W/m2
11:10 36.1 °F /  2.3 °C 32.7 °F /  0.4 °C 30.3in /  1027.4hPa East 0.9mph /  1.4km/h 4mph /  6.4km/h 87% 0in /  0.0mm 67 W/m2
11:15 36.3 °F /  2.4 °C 32.9 °F /  0.5 °C 30.3in /  1027.1hPa Calm   3mph /  4.8km/h 87% 0in /  0.0mm 67 W/m2
11:20 36.3 °F /  2.4 °C 32.9 °F /  0.5 °C 30.3in /  1027.1hPa ESE 2mph /  3.2km/h 3mph /  4.8km/h 87% 0in /  0.0mm 67 W/m2
11:25 36.5 °F /  2.5 °C 32.7 °F /  0.4 °C 30.3in /  1027.1hPa Calm   1mph /  1.6km/h 86% 0in /  0.0mm 63 W/m2
11:30 36.7 °F /  2.6 °C 32.9 °F /  0.5 °C 30.3in /  1027.1hPa NE 0.9mph /  1.4km/h 5mph /  8km/h 86% 0in /  0.0mm 74 W/m2
11:35 36.9 °F /  2.7 °C 33.1 °F /  0.6 °C 30.3in /  1027.1hPa Calm   1mph /  1.6km/h 86% 0in /  0.0mm 60 W/m2
11:40 36.9 °F /  2.7 °C 33.1 °F /  0.6 °C 30.3in /  1026.8hPa Calm   3mph /  4.8km/h 86% 0in /  0.0mm 49 W/m2
11:45 37 °F /  2.8 °C 33.3 °F /  0.7 °C 30.3in /  1026.8hPa ESE 2mph /  3.2km/h 3mph /  4.8km/h 86% 0in /  0.0mm 47 W/m2
11:50 37.2 °F /  2.9 °C 33.1 °F /  0.6 °C 30.3in /  1026.8hPa ENE 0.9mph /  1.4km/h 3mph /  4.8km/h 85% 0in /  0.0mm 53 W/m2
11:55 37.6 °F /  3.1 °C 33.4 °F /  0.8 °C 30.3in /  1026.8hPa Calm   2mph /  3.2km/h 85% 0in /  0.0mm 56 W/m2
12:00 37.8 °F /  3.2 °C 33.4 °F /  0.8 °C 30.3in /  1026.8hPa East 2mph /  3.2km/h 6mph /  9.7km/h 84% 0in /  0.0mm 60 W/m2
12:05 37.9 °F /  3.3 °C 33.3 °F /  0.7 °C 30.3in /  1026.8hPa ESE 2.9mph /  4.7km/h 3mph /  4.8km/h 83% 0in /  0.0mm 67 W/m2
12:10 38.1 °F /  3.4 °C 33.4 °F /  0.8 °C 30.3in /  1026.4hPa ESE 0.9mph /  1.4km/h 3mph /  4.8km/h 83% 0in /  0.0mm 69 W/m2
12:15 38.5 °F /  3.6 °C 33.4 °F /  0.8 °C 30.3in /  1026.4hPa East 2mph /  3.2km/h 3mph /  4.8km/h 82% 0in /  0.0mm 102 W/m2
12:20 38.8 °F /  3.8 °C 33.8 °F /  1 °C 30.3in /  1026.4hPa Calm   2mph /  3.2km/h 82% 0in /  0.0mm 250 W/m2
12:25 39 °F /  3.9 °C 33.6 °F /  0.9 °C 30.3in /  1026.1hPa ESE 0.9mph /  1.4km/h 2mph /  3.2km/h 81% 0in /  0.0mm 181 W/m2
12:30 39.6 °F /  4.2 °C 34.2 °F /  1.2 °C 30.3in /  1026.1hPa ESE 2.9mph /  4.7km/h 3mph /  4.8km/h 81% 0in /  0.0mm 172 W/m2
12:35 39.7 °F /  4.3 °C 34.2 °F /  1.2 °C 30.3in /  1026.1hPa East 2.9mph /  4.7km/h 3mph /  4.8km/h 80% 0in /  0.0mm 113 W/m2
12:40 39.9 °F /  4.4 °C 34 °F /  1.1 °C 30.3in /  1026.1hPa East 2mph /  3.2km/h 3mph /  4.8km/h 79% 0in /  0.0mm 74 W/m2
12:45 39.9 °F /  4.4 °C 34 °F /  1.1 °C 30.3in /  1025.7hPa NE 0.9mph /  1.4km/h 1mph /  1.6km/h 79% 0in /  0.0mm 47 W/m2
12:50 40.1 °F /  4.5 °C 33.8 °F /  1 °C 30.3in /  1025.7hPa Calm   2mph /  3.2km/h 78% 0in /  0.0mm 60 W/m2
12:55 40.5 °F /  4.7 °C 34.2 °F /  1.2 °C 30.3in /  1025.7hPa ESE 2mph /  3.2km/h 4mph /  6.4km/h 78% 0in /  0.0mm 46 W/m2
13:00 40.8 °F /  4.9 °C 33.8 °F /  1 °C 30.3in /  1025.7hPa ESE 0.9mph /  1.4km/h 5mph /  8km/h 76% 0in /  0.0mm 60 W/m2
13:05 41.2 °F /  5.1 °C 34.2 °F /  1.2 °C 30.3in /  1025.4hPa SSE 4.9mph /  7.9km/h 5mph /  8km/h 76% 0in /  0.0mm 51 W/m2
13:11 41.4 °F /  5.2 °C 34 °F /  1.1 °C 30.3in /  1025.4hPa NE 2mph /  3.2km/h 2mph /  3.2km/h 75% 0in /  0.0mm 46 W/m2
13:16 41.4 °F /  5.2 °C 34 °F /  1.1 °C 30.3in /  1025.4hPa ESE 0.9mph /  1.4km/h 4mph /  6.4km/h 75% 0in /  0.0mm 98 W/m2
13:21 41.5 °F /  5.3 °C 33.8 °F /  1 °C 30.3in /  1025.1hPa NE 4mph /  6.4km/h 6mph /  9.7km/h 74% 0in /  0.0mm 49 W/m2
13:26 41.9 °F /  5.5 °C 34.2 °F /  1.2 °C 30.3in /  1025.1hPa East 2.9mph /  4.7km/h 3mph /  4.8km/h 74% 0in /  0.0mm 98 W/m2
13:31 42.1 °F /  5.6 °C 34.3 °F /  1.3 °C 30.3in /  1025.1hPa ENE 2.9mph /  4.7km/h 5mph /  8km/h 74% 0in /  0.0mm 120 W/m2
13:36 42.3 °F /  5.7 °C 34.5 °F /  1.4 °C 30.3in /  1025.1hPa ESE 2.9mph /  4.7km/h 3mph /  4.8km/h 74% 0in /  0.0mm 67 W/m2
13:41 42.3 °F /  5.7 °C 34.2 °F /  1.2 °C 30.3in /  1025.1hPa NE 2mph /  3.2km/h 3mph /  4.8km/h 73% 0in /  0.0mm 54 W/m2
13:46 42.4 °F /  5.8 °C 34.3 °F /  1.3 °C 30.3in /  1025.1hPa ESE 2.9mph /  4.7km/h 3mph /  4.8km/h 73% 0in /  0.0mm 60 W/m2
13:51 42.6 °F /  5.9 °C 34.5 °F /  1.4 °C 30.3in /  1025.1hPa NE 0.9mph /  1.4km/h 4mph /  6.4km/h 73% 0in /  0.0mm 81 W/m2
13:56 42.6 °F /  5.9 °C 34.5 °F /  1.4 °C 30.3in /  1025.1hPa ESE 0.9mph /  1.4km/h 4mph /  6.4km/h 73% 0in /  0.0mm 74 W/m2
14:01 42.8 °F /  6 °C 34.7 °F /  1.5 °C 30.3in /  1024.7hPa SE 0.9mph /  1.4km/h 3mph /  4.8km/h 73% 0in /  0.0mm 83 W/m2
14:06 42.8 °F /  6 °C 34.7 °F /  1.5 °C 30.3in /  1024.7hPa ENE 2.9mph /  4.7km/h 7mph /  11.3km/h 73% 0in /  0.0mm 88 W/m2
14:11 43 °F /  6.1 °C 34.5 °F /  1.4 °C 30.3in /  1024.7hPa ESE 2mph /  3.2km/h 3mph /  4.8km/h 72% 0in /  0.0mm 60 W/m2
14:16 43.2 °F /  6.2 °C 34.7 °F /  1.5 °C 30.3in /  1024.7hPa ESE 2mph /  3.2km/h 6mph /  9.7km/h 72% 0in /  0.0mm 109 W/m2
14:21 43.3 °F /  6.3 °C 34.5 °F /  1.4 °C 30.3in /  1024.4hPa ENE 2mph /  3.2km/h 7mph /  11.3km/h 71% 0in /  0.0mm 72 W/m2
14:26 43.5 °F /  6.4 °C 34.7 °F /  1.5 °C 30.3in /  1024.4hPa East 0.9mph /  1.4km/h 3mph /  4.8km/h 71% 0in /  0.0mm 58 W/m2
14:31 43.5 °F /  6.4 °C 34.7 °F /  1.5 °C 30.3in /  1024.4hPa ESE 2.9mph /  4.7km/h 7mph /  11.3km/h 71% 0in /  0.0mm 65 W/m2
14:36 43.5 °F /  6.4 °C 34.7 °F /  1.5 °C 30.3in /  1024.4hPa Calm   3mph /  4.8km/h 71% 0in /  0.0mm 70 W/m2
14:41 43.5 °F /  6.4 °C 34.7 °F /  1.5 °C 30.3in /  1024.4hPa ESE 2mph /  3.2km/h 6mph /  9.7km/h 71% 0in /  0.0mm 54 W/m2
14:46 43.5 °F /  6.4 °C 34.3 °F /  1.3 °C 30.3in /  1024.4hPa ESE 2.9mph /  4.7km/h 3mph /  4.8km/h 70% 0in /  0.0mm 46 W/m2
14:51 43.7 °F /  6.5 °C 34.2 °F /  1.2 °C 30.3in /  1024.4hPa ESE 2mph /  3.2km/h 2mph /  3.2km/h 69% 0in /  0.0mm 46 W/m2
14:56 43.7 °F /  6.5 °C 34.5 °F /  1.4 °C 30.2in /  1024.0hPa East 2mph /  3.2km/h 4mph /  6.4km/h 70% 0in /  0.0mm 49 W/m2
15:01 43.9 °F /  6.6 °C 34.7 °F /  1.5 °C 30.2in /  1024.0hPa East 2mph /  3.2km/h 2mph /  3.2km/h 70% 0in /  0.0mm 39 W/m2
15:06 43.7 °F /  6.5 °C 34.9 °F /  1.6 °C 30.2in /  1024.0hPa East 2.9mph /  4.7km/h 3mph /  4.8km/h 71% 0in /  0.0mm 46 W/m2
15:11 43.5 °F /  6.4 °C 34.7 °F /  1.5 °C 30.2in /  1024.0hPa East 2mph /  3.2km/h 4mph /  6.4km/h 71% 0in /  0.0mm 40 W/m2
15:16 43.5 °F /  6.4 °C 34.7 °F /  1.5 °C 30.2in /  1024.0hPa ESE 0.9mph /  1.4km/h 2mph /  3.2km/h 71% 0in /  0.0mm 35 W/m2
15:21 43.3 °F /  6.3 °C 34.9 °F /  1.6 °C 30.2in /  1024.0hPa Calm   4mph /  6.4km/h 72% 0in /  0.0mm 33 W/m2
15:26 43.2 °F /  6.2 °C 34.7 °F /  1.5 °C 30.2in /  1024.0hPa ESE 0.9mph /  1.4km/h 3mph /  4.8km/h 72% 0in /  0.0mm 42 W/m2
15:31 43 °F /  6.1 °C 34.9 °F /  1.6 °C 30.2in /  1023.7hPa ESE 0.9mph /  1.4km/h 2mph /  3.2km/h 73% 0in /  0.0mm 47 W/m2
15:36 43 °F /  6.1 °C 34.9 °F /  1.6 °C 30.2in /  1024.0hPa Calm   3mph /  4.8km/h 73% 0in /  0.0mm 42 W/m2
15:41 42.8 °F /  6 °C 35.1 °F /  1.7 °C 30.2in /  1023.7hPa Calm   1mph /  1.6km/h 74% 0in /  0.0mm 35 W/m2
15:46 42.6 °F /  5.9 °C 35.2 °F /  1.8 °C 30.2in /  1023.7hPa Calm   2mph /  3.2km/h 75% 0in /  0.0mm 35 W/m2
15:52 42.4 °F /  5.8 °C 35.1 °F /  1.7 °C 30.2in /  1023.7hPa Calm     75% 0in /  0.0mm 30 W/m2
15:57 42.3 °F /  5.7 °C 35.2 °F /  1.8 °C 30.2in /  1023.7hPa Calm   1mph /  1.6km/h 76% 0in /  0.0mm 28 W/m2
16:02 42.1 °F /  5.6 °C 35.1 °F /  1.7 °C 30.2in /  1023.7hPa Calm     76% 0in /  0.0mm 28 W/m2
16:07 41.9 °F /  5.5 °C 34.9 °F /  1.6 °C 30.2in /  1023.7hPa Calm     76% 0in /  0.0mm 26 W/m2
16:12 41.5 °F /  5.3 °C 34.9 °F /  1.6 °C 30.2in /  1023.7hPa Calm     77% 0in /  0.0mm 25 W/m2
16:17 41.5 °F /  5.3 °C 35.2 °F /  1.8 °C 30.2in /  1023.7hPa SW 0.9mph /  1.4km/h 1mph /  1.6km/h 78% 0in /  0.0mm 25 W/m2
16:22 41.4 °F /  5.2 °C 35.1 °F /  1.7 °C 30.2in /  1023.7hPa Calm     78% 0in /  0.0mm 23 W/m2
16:27 41.2 °F /  5.1 °C 35.2 °F /  1.8 °C 30.2in /  1023.7hPa Calm   1mph /  1.6km/h 79% 0in /  0.0mm 23 W/m2
16:32 40.8 °F /  4.9 °C 34.9 °F /  1.6 °C 30.2in /  1023.7hPa SW 0.9mph /  1.4km/h 1mph /  1.6km/h 79% 0in /  0.0mm 21 W/m2
16:37 40.6 °F /  4.8 °C 34.7 °F /  1.5 °C 30.2in /  1023.7hPa Calm     79% 0in /  0.0mm 21 W/m2
16:42 40.5 °F /  4.7 °C 34.5 °F /  1.4 °C 30.2in /  1023.7hPa Calm     79% 0in /  0.0mm 19 W/m2
16:47 40.3 °F /  4.6 °C 34.5 °F /  1.4 °C 30.2in /  1023.7hPa Calm     80% 0in /  0.0mm 19 W/m2
16:52 40.3 °F /  4.6 °C 34.5 °F /  1.4 °C 30.2in /  1023.4hPa Calm     80% 0in /  0.0mm 18 W/m2
16:57 40.1 °F /  4.5 °C 34.5 °F /  1.4 °C 30.2in /  1023.4hPa Calm     80% 0in /  0.0mm 16 W/m2
17:02 39.9 °F /  4.4 °C 34.5 °F /  1.4 °C 30.2in /  1023.4hPa Calm     81% 0in /  0.0mm 16 W/m2
17:07 39.7 °F /  4.3 °C 34.3 °F /  1.3 °C 30.2in /  1023.4hPa Calm   1mph /  1.6km/h 81% 0in /  0.0mm 14 W/m2
17:12 39.6 °F /  4.2 °C 34.2 °F /  1.2 °C 30.2in /  1023.4hPa Calm     81% 0in /  0.0mm 14 W/m2
17:17 39.4 °F /  4.1 °C 34.3 °F /  1.3 °C 30.2in /  1023.4hPa Calm     82% 0in /  0.0mm 12 W/m2
17:22 39.4 °F /  4.1 °C 34.3 °F /  1.3 °C 30.2in /  1023.0hPa Calm     82% 0in /  0.0mm 9 W/m2
17:27 39.4 °F /  4.1 °C 34.3 °F /  1.3 °C 30.2in /  1023.0hPa Calm     82% 0in /  0.0mm 7 W/m2
17:32 39.4 °F /  4.1 °C 34.3 °F /  1.3 °C 30.2in /  1023.4hPa Calm   1mph /  1.6km/h 82% 0in /  0.0mm 5 W/m2
17:37 39.2 °F /  4 °C 34.2 °F /  1.2 °C 30.2in /  1023.4hPa Calm     82% 0in /  0.0mm 0 W/m2
17:42 39 °F /  3.9 °C 34 °F /  1.1 °C 30.2in /  1023.4hPa Calm     82% 0in /  0.0mm 0 W/m2
17:47 38.8 °F /  3.8 °C 33.8 °F /  1 °C 30.2in /  1023.4hPa Calm     82% 0in /  0.0mm 0 W/m2
17:52 38.7 °F /  3.7 °C 34 °F /  1.1 °C 30.2in /  1023.4hPa Calm   2mph /  3.2km/h 83% 0in /  0.0mm 0 W/m2
17:57 38.5 °F /  3.6 °C 33.8 °F /  1 °C 30.2in /  1023.4hPa SW 0.9mph /  1.4km/h 1mph /  1.6km/h 83% 0in /  0.0mm 0 W/m2
18:02 38.1 °F /  3.4 °C 33.4 °F /  0.8 °C 30.2in /  1023.4hPa SW 2mph /  3.2km/h 3mph /  4.8km/h 83% 0in /  0.0mm 0 W/m2
18:07 37.9 °F /  3.3 °C 33.3 °F /  0.7 °C 30.2in /  1023.4hPa SW 2mph /  3.2km/h 2mph /  3.2km/h 83% 0in /  0.0mm 0 W/m2
18:13 37.8 °F /  3.2 °C 33.4 °F /  0.8 °C 30.2in /  1023.4hPa SW 0.9mph /  1.4km/h 2mph /  3.2km/h 84% 0in /  0.0mm 0 W/m2
18:18 37.8 °F /  3.2 °C 33.4 °F /  0.8 °C 30.2in /  1023.4hPa SW 2mph /  3.2km/h 2mph /  3.2km/h 84% 0in /  0.0mm 0 W/m2
18:23 37.6 °F /  3.1 °C 33.3 °F /  0.7 °C 30.2in /  1023.4hPa Calm   1mph /  1.6km/h 84% 0in /  0.0mm 0 W/m2
18:28 37.6 °F /  3.1 °C 33.3 °F /  0.7 °C 30.2in /  1023.4hPa SW 0.9mph /  1.4km/h 2mph /  3.2km/h 84% 0in /  0.0mm 0 W/m2
18:33 37.4 °F /  3 °C 33.3 °F /  0.7 °C 30.2in /  1023.4hPa Calm     85% 0in /  0.0mm 0 W/m2
18:38 37.4 °F /  3 °C 33.3 °F /  0.7 °C 30.2in /  1023.4hPa Calm   2mph /  3.2km/h 85% 0in /  0.0mm 0 W/m2
18:43 37.2 °F /  2.9 °C 33.1 °F /  0.6 °C 30.2in /  1023.4hPa Calm   2mph /  3.2km/h 85% 0in /  0.0mm 0 W/m2
18:48 37 °F /  2.8 °C 32.9 °F /  0.5 °C 30.2in /  1023.4hPa Calm     85% 0in /  0.0mm 0 W/m2
18:53 36.9 °F /  2.7 °C 32.7 °F /  0.4 °C 30.2in /  1023.4hPa Calm   2mph /  3.2km/h 85% 0in /  0.0mm 0 W/m2
18:58 36.7 °F /  2.6 °C 32.5 °F /  0.3 °C 30.2in /  1023.4hPa Calm     85% 0in /  0.0mm 0 W/m2
19:03 36.5 °F /  2.5 °C 32.4 °F /  0.2 °C 30.2in /  1023.4hPa Calm     85% 0in /  0.0mm 0 W/m2
19:08 36.3 °F /  2.4 °C 32.2 °F /  0.1 °C 30.2in /  1023.4hPa Calm   1mph /  1.6km/h 85% 0in /  0.0mm 0 W/m2
19:13 36.1 °F /  2.3 °C 32 °F /  0 °C 30.2in /  1023.4hPa Calm   1mph /  1.6km/h 85% 0in /  0.0mm 0 W/m2
19:18 36 °F /  2.2 °C 31.8 °F /  -0.1 °C 30.2in /  1023.4hPa Calm   2mph /  3.2km/h 85% 0in /  0.0mm 0 W/m2
19:23 36 °F /  2.2 °C 31.8 °F /  -0.1 °C 30.2in /  1023.4hPa SW 0.9mph /  1.4km/h 1mph /  1.6km/h 85% 0in /  0.0mm 0 W/m2
19:28 36 °F /  2.2 °C 31.8 °F /  -0.1 °C 30.2in /  1023.4hPa Calm   2mph /  3.2km/h 85% 0in /  0.0mm 0 W/m2
19:33 35.8 °F /  2.1 °C 31.6 °F /  -0.2 °C 30.2in /  1023.4hPa Calm     85% 0in /  0.0mm 0 W/m2
19:38 35.4 °F /  1.9 °C 31.6 °F /  -0.2 °C 30.2in /  1023.4hPa Calm   1mph /  1.6km/h 86% 0in /  0.0mm 0 W/m2
19:43 35.4 °F /  1.9 °C 31.6 °F /  -0.2 °C 30.2in /  1023.4hPa Calm   1mph /  1.6km/h 86% 0in /  0.0mm 0 W/m2
19:48 35.4 °F /  1.9 °C 31.6 °F /  -0.2 °C 30.2in /  1023.4hPa SW 0.9mph /  1.4km/h 1mph /  1.6km/h 86% 0in /  0.0mm 0 W/m2
19:53 35.2 °F /  1.8 °C 31.5 °F /  -0.3 °C 30.2in /  1023.4hPa Calm   1mph /  1.6km/h 86% 0in /  0.0mm 0 W/m2
19:58 35.2 °F /  1.8 °C 31.5 °F /  -0.3 °C 30.2in /  1023.4hPa Calm   1mph /  1.6km/h 86% 0in /  0.0mm 0 W/m2
20:03 35.1 °F /  1.7 °C 31.3 °F /  -0.4 °C 30.2in /  1023.4hPa Calm   1mph /  1.6km/h 86% 0in /  0.0mm 0 W/m2
20:08 34.9 °F /  1.6 °C 31.5 °F /  -0.3 °C 30.2in /  1023.4hPa Calm     87% 0in /  0.0mm 0 W/m2
20:13 34.7 °F /  1.5 °C 31.3 °F /  -0.4 °C 30.2in /  1023.7hPa Calm     87% 0in /  0.0mm 0 W/m2
20:18 34.5 °F /  1.4 °C 31.1 °F /  -0.5 °C 30.2in /  1023.7hPa Calm   2mph /  3.2km/h 87% 0in /  0.0mm 0 W/m2
20:23 34.3 °F /  1.3 °C 31.1 °F /  -0.5 °C 30.2in /  1023.4hPa Calm   2mph /  3.2km/h 88% 0in /  0.0mm 0 W/m2
20:28 34.3 °F /  1.3 °C 31.1 °F /  -0.5 °C 30.2in /  1023.4hPa Calm     88% 0in /  0.0mm 0 W/m2
20:33 34.3 °F /  1.3 °C 31.1 °F /  -0.5 °C 30.2in /  1023.4hPa Calm   2mph /  3.2km/h 88% 0in /  0.0mm 0 W/m2
20:38 34.3 °F /  1.3 °C 31.1 °F /  -0.5 °C 30.2in /  1023.4hPa Calm   1mph /  1.6km/h 88% 0in /  0.0mm 0 W/m2
20:43 34.3 °F /  1.3 °C 31.1 °F /  -0.5 °C 30.2in /  1023.4hPa East 0.9mph /  1.4km/h 2mph /  3.2km/h 88% 0in /  0.0mm 0 W/m2
20:48 34.3 °F /  1.3 °C 30.9 °F /  -0.6 °C 30.2in /  1023.4hPa Calm   1mph /  1.6km/h 87% 0in /  0.0mm 0 W/m2
20:53 34.3 °F /  1.3 °C 30.9 °F /  -0.6 °C 30.2in /  1023.4hPa East 0.9mph /  1.4km/h 2mph /  3.2km/h 87% 0in /  0.0mm 0 W/m2
20:58 34.3 °F /  1.3 °C 30.9 °F /  -0.6 °C 30.2in /  1023.4hPa SE 0.9mph /  1.4km/h 1mph /  1.6km/h 87% 0in /  0.0mm 0 W/m2
21:03 34.3 °F /  1.3 °C 30.9 °F /  -0.6 °C 30.2in /  1023.4hPa Calm     87% 0in /  0.0mm 0 W/m2
21:08 34.3 °F /  1.3 °C 30.6 °F /  -0.8 °C 30.2in /  1023.4hPa Calm     86% 0in /  0.0mm 0 W/m2
21:13 34.3 °F /  1.3 °C 30.9 °F /  -0.6 °C 30.2in /  1023.4hPa Calm   3mph /  4.8km/h 87% 0in /  0.0mm 0 W/m2
21:18 34.3 °F /  1.3 °C 30.6 °F /  -0.8 °C 30.2in /  1023.4hPa Calm     86% 0in /  0.0mm 0 W/m2
21:23 34.2 °F /  1.2 °C 30.4 °F /  -0.9 °C 30.2in /  1023.4hPa Calm     86% 0in /  0.0mm 0 W/m2
21:28 34.2 °F /  1.2 °C 30.7 °F /  -0.7 °C 30.2in /  1023.4hPa South 0.9mph /  1.4km/h 1mph /  1.6km/h 87% 0in /  0.0mm 0 W/m2
21:33 34 °F /  1.1 °C 30.6 °F /  -0.8 °C 30.2in /  1023.4hPa Calm     87% 0in /  0.0mm 0 W/m2
21:38 33.8 °F /  1 °C 30.4 °F /  -0.9 °C 30.2in /  1023.4hPa Calm   1mph /  1.6km/h 87% 0in /  0.0mm 0 W/m2
21:43 33.6 °F /  0.9 °C 30.4 °F /  -0.9 °C 30.2in /  1023.4hPa Calm     88% 0in /  0.0mm 0 W/m2
21:48 33.4 °F /  0.8 °C 30.2 °F /  -1 °C 30.2in /  1023.4hPa Calm     88% 0in /  0.0mm 0 W/m2
21:53 33.3 °F /  0.7 °C 30 °F /  -1.1 °C 30.2in /  1023.4hPa Calm     88% 0in /  0.0mm 0 W/m2
21:58 33.3 °F /  0.7 °C 30.4 °F /  -0.9 °C 30.2in /  1023.4hPa Calm     89% 0in /  0.0mm 0 W/m2
22:03 33.1 °F /  0.6 °C 30.2 °F /  -1 °C 30.2in /  1023.4hPa Calm     89% 0in /  0.0mm 0 W/m2
22:08 32.9 °F /  0.5 °C 30 °F /  -1.1 °C 30.2in /  1023.4hPa South 2mph /  3.2km/h 2mph /  3.2km/h 89% 0in /  0.0mm 0 W/m2
22:13 32.9 °F /  0.5 °C 30.4 °F /  -0.9 °C 30.2in /  1023.0hPa Calm   1mph /  1.6km/h 90% 0in /  0.0mm 0 W/m2
22:18 32.9 °F /  0.5 °C 30.4 °F /  -0.9 °C 30.2in /  1023.4hPa Calm     90% 0in /  0.0mm 0 W/m2
22:23 32.9 °F /  0.5 °C 30.4 °F /  -0.9 °C 30.2in /  1023.4hPa Calm     90% 0in /  0.0mm 0 W/m2
22:28 33.1 °F /  0.6 °C 30.4 °F /  -0.9 °C 30.2in /  1023.0hPa Calm     90% 0in /  0.0mm 0 W/m2
22:33 33.1 °F /  0.6 °C 30.4 °F /  -0.9 °C 30.2in /  1023.0hPa Calm     90% 0in /  0.0mm 0 W/m2
22:38 32.9 °F /  0.5 °C 30.4 °F /  -0.9 °C 30.2in /  1023.0hPa Calm   1mph /  1.6km/h 90% 0in /  0.0mm 0 W/m2
22:43 32.9 °F /  0.5 °C 30.6 °F /  -0.8 °C 30.2in /  1023.0hPa Calm   1mph /  1.6km/h 91% 0in /  0.0mm 0 W/m2
22:49 32.7 °F /  0.4 °C 30.4 °F /  -0.9 °C 30.2in /  1023.4hPa Calm     91% 0in /  0.0mm 0 W/m2
22:54 32.7 °F /  0.4 °C 30.4 °F /  -0.9 °C 30.2in /  1023.4hPa Calm   1mph /  1.6km/h 91% 0in /  0.0mm 0 W/m2
22:59 32.7 °F /  0.4 °C 30.4 °F /  -0.9 °C 30.2in /  1023.4hPa Calm     91% 0in /  0.0mm 0 W/m2
23:04 32.7 °F /  0.4 °C 30.4 °F /  -0.9 °C 30.2in /  1023.4hPa Calm     91% 0in /  0.0mm 0 W/m2
23:09 32.5 °F /  0.3 °C 30.2 °F /  -1 °C 30.2in /  1023.4hPa Calm     91% 0in /  0.0mm 0 W/m2
23:14 32.4 °F /  0.2 °C 30 °F /  -1.1 °C 30.2in /  1023.4hPa South 0.9mph /  1.4km/h 1mph /  1.6km/h 91% 0in /  0.0mm 0 W/m2
23:19 32.2 °F /  0.1 °C 29.8 °F /  -1.2 °C 30.2in /  1023.4hPa Calm     91% 0in /  0.0mm 0 W/m2
23:24 32 °F /  0 °C 29.7 °F /  -1.3 °C 30.2in /  1023.4hPa Calm     91% 0in /  0.0mm 0 W/m2
23:29 31.8 °F /  -0.1 °C 29.8 °F /  -1.2 °C 30.2in /  1023.4hPa Calm     92% 0in /  0.0mm 0 W/m2
23:34 31.8 °F /  -0.1 °C 29.8 °F /  -1.2 °C 30.2in /  1023.4hPa Calm     92% 0in /  0.0mm 0 W/m2
23:39 31.8 °F /  -0.1 °C 29.8 °F /  -1.2 °C 30.2in /  1023.4hPa Calm     92% 0in /  0.0mm 0 W/m2
23:45 31.8 °F /  -0.1 °C 29.8 °F /  -1.2 °C 30.2in /  1023.4hPa Calm     92% 0in /  0.0mm 0 W/m2
23:50 31.8 °F /  -0.1 °C 29.8 °F /  -1.2 °C 30.2in /  1023.4hPa Calm     92% 0in /  0.0mm 0 W/m2
23:55 31.6 °F /  -0.2 °C 29.7 °F /  -1.3 °C 30.2in /  1023.4hPa Calm     92% 0in /  0.0mm 0 W/m2
Juneau County Weather
Compliments of Weather Underground - 4 mb